Time;durP1;ratioP1;P1;durP2;ratioP2;P2;SDS_P1;SDS_P2;PMS_P1;PMS_P2;Temp;Humidity;BMP_temperature;BMP_pressure;BME280_temperature;BME280_humidity;BME280_pressure;Samples;Min_cycle;Max_cycle;Signal;HPM_P1;HPM_P2
2021/11/30 00:01:58;;;;;;;7.28;2.97;;;;;;;2.02;100.00;96009.28;5049028;28;20077;-53
2021/11/30 00:04:29;;;;;;;4.43;3.88;;;;;;;2.18;100.00;96019.50;5056398;28;20064;-57
2021/11/30 00:06:58;;;;;;;4.63;2.97;;;;;;;2.04;100.00;96023.03;5051766;28;20048;-57
2021/11/30 00:12:16;;;;;;;6.28;3.58;;;;;;;1.88;100.00;96018.00;5051418;28;20067;-55
2021/11/30 00:14:48;;;;;;;7.35;4.18;;;;;;;2.03;100.00;96016.16;5056934;28;20089;-56
2021/11/30 00:17:17;;;;;;;6.38;4.38;;;;;;;2.03;100.00;96013.56;5054598;28;20084;-57
2021/11/30 00:19:47;;;;;;;3.40;3.10;;;;;;;1.88;100.00;96012.81;5059627;28;20072;-55
2021/11/30 00:22:17;;;;;;;3.85;3.50;;;;;;;2.08;100.00;96014.06;5060257;28;20068;-56
2021/11/30 00:24:47;;;;;;;4.32;3.53;;;;;;;1.79;100.00;96010.84;5051309;28;20069;-51
2021/11/30 00:27:16;;;;;;;4.07;3.67;;;;;;;1.94;100.00;96008.97;5051364;28;20068;-53
2021/11/30 00:29:46;;;;;;;6.60;4.68;;;;;;;2.18;100.00;96013.47;5051871;28;20589;-57
2021/11/30 00:32:14;;;;;;;4.45;4.00;;;;;;;2.02;100.00;96017.09;5052906;28;20088;-55
2021/11/30 00:34:43;;;;;;;3.97;3.45;;;;;;;1.91;100.00;96016.97;5053470;28;20077;-55
2021/11/30 00:37:11;;;;;;;5.57;3.65;;;;;;;1.96;100.00;96027.94;5053549;28;20072;-56
2021/11/30 00:39:40;;;;;;;4.15;3.60;;;;;;;1.86;100.00;96024.28;5047070;28;20079;-54
2021/11/30 00:42:08;;;;;;;4.43;3.88;;;;;;;1.93;100.00;96022.94;5056427;28;20067;-53
2021/11/30 00:44:38;;;;;;;4.57;3.92;;;;;;;1.94;100.00;96021.97;5053071;28;20095;-56
2021/11/30 00:47:16;;;;;;;5.72;3.50;;;;;;;2.03;100.00;96041.31;5052622;28;20083;-52
2021/11/30 00:49:46;;;;;;;6.07;4.20;;;;;;;1.99;100.00;96047.66;5056603;28;20048;-55
2021/11/30 00:52:15;;;;;;;5.30;4.13;;;;;;;1.83;100.00;96056.50;5053995;28;20407;-55
2021/11/30 00:54:44;;;;;;;4.65;4.15;;;;;;;2.02;100.00;96050.06;5055422;28;20060;-56
2021/11/30 00:57:13;;;;;;;5.00;3.95;;;;;;;1.88;100.00;96051.81;5050757;28;20152;-51
2021/11/30 00:59:42;;;;;;;4.13;3.73;;;;;;;1.83;100.00;96055.66;5057319;28;20080;-57
2021/11/30 01:02:12;;;;;;;5.03;3.55;;;;;;;1.97;100.00;96063.38;5055304;28;20088;-57
2021/11/30 01:04:41;;;;;;;4.50;3.80;;;;;;;1.88;100.00;96066.56;5060424;28;20111;-56
2021/11/30 01:07:11;;;;;;;4.95;4.45;;;;;;;1.96;100.00;96060.88;5051248;28;20065;-54
2021/11/30 01:09:40;;;;;;;3.63;3.33;;;;;;;1.88;100.00;96066.56;5057778;28;20742;-54
2021/11/30 01:12:09;;;;;;;4.90;3.97;;;;;;;1.81;100.00;96057.53;5051693;28;20063;-55
2021/11/30 01:14:38;;;;;;;5.93;4.20;;;;;;;1.88;100.00;96072.59;5053300;28;20076;-53
2021/11/30 01:20:21;;;;;;;4.65;4.22;;;;;;;1.96;100.00;96085.13;5797907;23;20046;-45
2021/11/30 01:22:50;;;;;;;5.20;3.63;;;;;;;1.93;100.00;96082.72;4963796;28;20425;-48
2021/11/30 01:25:18;;;;;;;2.88;2.67;;;;;;;1.95;100.00;96083.44;4964344;28;20678;-49
2021/11/30 01:27:47;;;;;;;4.63;3.85;;;;;;;1.86;100.00;96077.09;4964431;28;20083;-53
2021/11/30 01:30:16;;;;;;;5.20;3.92;;;;;;;1.85;100.00;96077.19;4957087;28;20071;-47
2021/11/30 01:32:45;;;;;;;5.13;3.90;;;;;;;1.92;100.00;96085.41;4953753;28;20047;-48
2021/11/30 01:35:17;;;;;;;5.10;4.15;;;;;;;2.01;100.00;96075.25;4954158;28;20074;-51
2021/11/30 01:37:48;;;;;;;4.85;3.42;;;;;;;1.78;100.00;96078.50;4954950;28;20090;-48
2021/11/30 01:40:18;;;;;;;5.28;3.88;;;;;;;2.01;100.00;96084.81;4957271;28;20089;-52
2021/11/30 01:42:49;;;;;;;4.28;3.78;;;;;;;1.92;100.00;96086.25;4953810;28;20074;-46
2021/11/30 01:45:29;;;;;;;4.63;3.85;;;;;;;1.90;100.00;96080.31;4953552;28;20078;-45
2021/11/30 01:49:09;;;;;;;4.95;4.30;;;;;;;1.91;100.00;96081.97;4958591;28;20058;-46
2021/11/30 01:51:01;;;;;;;4.28;3.83;;;;;;;1.96;100.00;96092.94;4953018;28;20539;-51
2021/11/30 01:53:31;;;;;;;4.25;3.50;;;;;;;1.77;100.00;96082.88;4955071;28;20070;-51
2021/11/30 01:55:59;;;;;;;3.70;3.20;;;;;;;1.96;100.00;96094.66;4954602;28;20082;-48
2021/11/30 01:58:28;;;;;;;4.20;3.75;;;;;;;1.98;100.00;96087.63;4953934;28;20081;-56
2021/11/30 02:00:56;;;;;;;4.00;3.60;;;;;;;1.90;100.00;96088.13;4954479;28;20086;-53
2021/11/30 02:03:25;;;;;;;8.88;4.63;;;;;;;2.14;100.00;96085.66;4952175;28;20071;-50
2021/11/30 02:05:53;;;;;;;3.90;3.50;;;;;;;1.85;100.00;96090.19;4955523;28;20088;-49
2021/11/30 02:08:21;;;;;;;3.75;3.38;;;;;;;2.03;100.00;96082.91;4954538;28;20082;-49
2021/11/30 02:10:54;;;;;;;4.13;3.38;;;;;;;2.13;100.00;96083.97;4960943;28;20484;-48
2021/11/30 02:13:23;;;;;;;4.00;3.60;;;;;;;2.10;100.00;96081.63;4949542;28;20098;-50
2021/11/30 02:15:54;;;;;;;3.70;3.40;;;;;;;2.03;100.00;96075.97;4950770;28;20175;-50
2021/11/30 02:18:23;;;;;;;3.58;3.22;;;;;;;1.99;100.00;96064.09;4960313;28;20073;-50
2021/11/30 02:20:55;;;;;;;4.10;3.67;;;;;;;2.00;100.00;96054.56;4953562;28;20050;-45
2021/11/30 02:23:37;;;;;;;4.00;3.60;;;;;;;1.98;100.00;96059.00;4950710;28;20505;-45
2021/11/30 02:26:11;;;;;;;3.20;2.90;;;;;;;1.80;100.00;96029.88;4955182;28;20038;-49
2021/11/30 02:28:42;;;;;;;2.88;2.67;;;;;;;1.96;100.00;96063.47;4951758;28;20047;-49
2021/11/30 02:31:12;;;;;;;3.67;3.38;;;;;;;2.03;100.00;96051.72;4948810;28;20035;-46
2021/11/30 02:33:41;;;;;;;3.88;3.50;;;;;;;1.92;100.00;96049.84;4949195;28;20066;-46
2021/11/30 02:36:21;;;;;;;3.25;2.95;;;;;;;1.89;100.00;96050.03;4949615;28;20162;-49
2021/11/30 02:38:49;;;;;;;3.63;3.22;;;;;;;1.86;100.00;96034.66;4949444;28;20090;-46
2021/11/30 02:41:18;;;;;;;3.72;3.30;;;;;;;1.92;100.00;96052.44;4954803;28;20079;-46
2021/11/30 02:43:46;;;;;;;3.30;3.00;;;;;;;2.01;100.00;96059.63;4957168;28;20086;-47
2021/11/30 02:46:29;;;;;;;3.45;3.13;;;;;;;1.91;100.00;96050.78;4955435;28;20071;-51
2021/11/30 02:48:58;;;;;;;4.13;3.75;;;;;;;1.93;100.00;96064.53;4949768;28;20500;-49
2021/11/30 02:51:28;;;;;;;3.20;2.88;;;;;;;1.90;100.00;96062.13;4949366;28;20063;-51
2021/11/30 02:53:59;;;;;;;3.55;3.25;;;;;;;2.00;100.00;96050.19;4951049;28;20071;-48
2021/11/30 02:56:28;;;;;;;3.15;2.90;;;;;;;1.88;100.00;96070.00;4956197;28;22510;-49
2021/11/30 02:58:56;;;;;;;3.30;3.00;;;;;;;1.82;100.00;96067.81;4958857;28;20090;-48
2021/11/30 03:01:25;;;;;;;3.03;2.80;;;;;;;1.91;100.00;96074.19;4949952;28;20083;-47
2021/11/30 03:03:54;;;;;;;2.75;2.55;;;;;;;1.88;100.00;96070.00;4954729;28;20105;-46
2021/11/30 03:06:22;;;;;;;3.88;3.55;;;;;;;2.01;100.00;96064.00;4953612;28;20066;-49
2021/11/30 03:08:52;;;;;;;4.60;3.50;;;;;;;1.81;100.00;96073.94;4954688;28;20062;-50
2021/11/30 03:11:20;;;;;;;4.60;3.50;;;;;;;1.92;100.00;96075.84;4951375;28;20083;-45
2021/11/30 03:13:49;;;;;;;3.47;3.17;;;;;;;1.98;100.00;96070.22;4961353;28;20086;-49
2021/11/30 03:16:18;;;;;;;3.25;2.95;;;;;;;2.05;100.00;96066.28;4952070;28;20067;-50
2021/11/30 03:18:46;;;;;;;2.80;2.60;;;;;;;2.08;100.00;96062.66;4950154;28;20149;-46
2021/11/30 03:21:15;;;;;;;3.53;2.90;;;;;;;2.00;100.00;96063.19;4947465;28;20067;-48
2021/11/30 03:23:43;;;;;;;3.65;3.08;;;;;;;2.13;100.00;96052.78;4946293;28;20412;-48
2021/11/30 03:26:13;;;;;;;3.38;3.08;;;;;;;2.01;100.00;96062.25;4949300;28;20086;-50
2021/11/30 03:28:43;;;;;;;3.28;3.08;;;;;;;2.08;100.00;96070.47;4961449;28;20566;-52
2021/11/30 03:31:21;;;;;;;3.08;2.88;;;;;;;2.12;100.00;96069.31;4954792;28;20086;-54
2021/11/30 03:34:01;;;;;;;3.20;3.00;;;;;;;2.18;100.00;96068.91;4953597;28;20067;-51
2021/11/30 03:36:29;;;;;;;3.75;3.45;;;;;;;2.18;100.00;96074.13;4944460;28;20176;-50
2021/11/30 03:38:59;;;;;;;3.67;2.97;;;;;;;2.11;100.00;96065.06;4947699;28;20086;-51
2021/11/30 03:41:31;;;;;;;3.08;2.85;;;;;;;2.13;100.00;96074.44;4947257;29;20079;-53
2021/11/30 03:44:00;;;;;;;4.40;3.30;;;;;;;2.23;100.00;96064.22;4950110;29;20087;-49
2021/11/30 03:46:30;;;;;;;2.90;2.70;;;;;;;1.99;100.00;96066.69;4947310;28;20096;-51
2021/11/30 03:48:59;;;;;;;3.03;2.83;;;;;;;2.06;100.00;96073.16;4947619;28;20078;-51
2021/11/30 03:51:27;;;;;;;3.38;3.08;;;;;;;2.16;100.00;96082.94;4946807;28;20081;-51
2021/11/30 03:53:56;;;;;;;3.38;3.15;;;;;;;2.20;100.00;96079.19;4948434;28;20067;-52
2021/11/30 03:56:26;;;;;;;3.60;3.20;;;;;;;2.03;100.00;96069.91;4947076;29;20083;-51
2021/11/30 03:58:56;;;;;;;3.15;2.88;;;;;;;2.08;100.00;96079.09;4948228;29;20441;-49
2021/11/30 04:01:24;;;;;;;3.25;2.95;;;;;;;2.19;100.00;96073.16;4946493;29;20517;-52
2021/11/30 04:03:55;;;;;;;4.20;3.00;;;;;;;2.26;100.00;96073.59;4946775;29;20067;-45
2021/11/30 04:06:23;;;;;;;3.30;3.00;;;;;;;2.20;100.00;96079.19;4946965;28;20074;-52
2021/11/30 04:08:51;;;;;;;3.47;3.20;;;;;;;2.13;100.00;96077.03;4945993;28;20075;-52
2021/11/30 04:11:21;;;;;;;2.97;2.70;;;;;;;2.28;100.00;96082.13;4946993;29;20086;-47
2021/11/30 04:13:50;;;;;;;5.03;2.80;;;;;;;2.36;100.00;96075.47;4948334;29;20082;-51
2021/11/30 04:16:19;;;;;;;2.83;2.53;;;;;;;2.20;100.00;96069.63;4946603;28;20073;-50
2021/11/30 04:18:48;;;;;;;2.87;2.67;;;;;;;2.23;100.00;96068.59;4946993;28;20070;-48
2021/11/30 04:21:16;;;;;;;3.20;2.97;;;;;;;2.34;100.00;96084.31;4946716;28;20486;-53
2021/11/30 04:23:44;;;;;;;2.80;2.60;;;;;;;2.25;100.00;96080.56;4947162;29;20077;-50
2021/11/30 04:26:13;;;;;;;2.90;2.70;;;;;;;2.25;100.00;96069.34;4939234;28;20075;-50
2021/11/30 04:28:43;;;;;;;2.90;2.70;;;;;;;2.13;100.00;96089.19;4947275;29;20234;-51
2021/11/30 04:31:11;;;;;;;3.08;2.80;;;;;;;2.27;100.00;96077.84;4946514;29;20131;-52
2021/11/30 04:33:41;;;;;;;3.35;3.05;;;;;;;2.15;100.00;96082.13;4944751;28;20071;-48
2021/11/30 04:36:10;;;;;;;3.50;3.20;;;;;;;2.01;100.00;96069.22;4946376;28;20491;-48
2021/11/30 04:38:57;;;;;;;3.50;3.20;;;;;;;2.17;100.00;96092.41;4947680;28;20428;-47
2021/11/30 04:41:25;;;;;;;3.10;2.85;;;;;;;2.16;100.00;96098.56;4949580;28;20133;-46
2021/11/30 04:43:55;;;;;;;4.35;3.03;;;;;;;2.10;100.00;96103.25;4957242;28;20078;-47
2021/11/30 04:46:25;;;;;;;3.70;2.80;;;;;;;2.17;100.00;96095.00;4950647;28;20063;-51
2021/11/30 04:48:58;;;;;;;3.13;2.90;;;;;;;2.21;100.00;96083.50;4951522;28;20490;-50
2021/11/30 04:51:30;;;;;;;3.38;2.95;;;;;;;2.30;100.00;96091.50;4945854;28;20102;-53
2021/11/30 04:53:58;;;;;;;4.47;3.15;;;;;;;2.30;100.00;96091.50;4950998;28;20468;-50
2021/11/30 04:56:27;;;;;;;2.97;2.65;;;;;;;2.42;100.00;96092.44;4956271;28;20083;-47
2021/11/30 04:58:55;;;;;;;4.63;3.65;;;;;;;2.16;100.00;96096.78;4953774;28;20087;-46
2021/11/30 05:01:23;;;;;;;3.72;3.25;;;;;;;2.47;100.00;96095.56;4946787;28;20078;-50
2021/11/30 05:03:52;;;;;;;3.03;2.70;;;;;;;2.30;100.00;96101.06;4953230;28;20445;-49
2021/11/30 05:06:22;;;;;;;3.38;2.90;;;;;;;2.35;100.00;96099.00;4949752;28;20070;-47
2021/11/30 05:08:50;;;;;;;3.35;2.88;;;;;;;2.10;100.00;96077.25;4950551;28;20559;-50
2021/11/30 05:11:19;;;;;;;3.58;3.20;;;;;;;2.22;100.00;96100.75;4950531;28;21657;-48
2021/11/30 05:13:47;;;;;;;3.20;2.90;;;;;;;2.25;100.00;96096.19;4946557;28;20117;-47
2021/11/30 05:16:15;;;;;;;3.10;2.80;;;;;;;2.47;100.00;96095.56;4946714;28;20063;-49
2021/11/30 05:18:44;;;;;;;3.53;3.22;;;;;;;2.48;100.00;96088.56;4945395;28;20151;-48
2021/11/30 05:21:12;;;;;;;3.75;3.03;;;;;;;2.47;100.00;96092.13;4945952;28;20066;-50
2021/11/30 05:23:42;;;;;;;5.05;2.92;;;;;;;2.37;100.00;96105.78;4947094;28;20057;-49
2021/11/30 05:26:11;;;;;;;3.05;2.85;;;;;;;2.41;100.00;96064.78;4947428;28;20633;-53
2021/11/30 05:28:42;;;;;;;3.17;2.88;;;;;;;2.41;100.00;96084.72;4943346;29;20083;-50
2021/11/30 05:31:12;;;;;;;5.15;3.33;;;;;;;2.52;100.00;96080.47;4940773;28;20066;-48
2021/11/30 05:33:41;;;;;;;3.60;3.25;;;;;;;2.57;100.00;96080.97;4947106;29;20075;-50
2021/11/30 05:36:09;;;;;;;5.75;2.90;;;;;;;2.45;100.00;96068.81;4947043;29;20529;-51
2021/11/30 05:38:37;;;;;;;3.08;2.60;;;;;;;2.41;100.00;96080.38;4941812;28;20075;-51
2021/11/30 05:41:07;;;;;;;3.15;2.60;;;;;;;2.24;100.00;96062.47;4948846;29;20101;-51
2021/11/30 05:43:36;;;;;;;2.72;2.53;;;;;;;2.45;100.00;96071.44;4941197;29;21526;-51
2021/11/30 05:46:04;;;;;;;3.20;2.75;;;;;;;2.25;100.00;96064.13;4946756;29;20070;-47
2021/11/30 05:48:33;;;;;;;3.13;2.83;;;;;;;2.20;100.00;96061.00;4948887;28;20147;-47
2021/11/30 05:51:02;;;;;;;3.47;3.10;;;;;;;2.17;100.00;96074.19;4950109;28;20555;-52
2021/11/30 05:53:30;;;;;;;4.50;2.97;;;;;;;2.43;100.00;96069.84;4950412;29;20079;-51
2021/11/30 05:56:00;;;;;;;3.72;3.20;;;;;;;2.33;100.00;96067.03;4952763;29;20082;-48
2021/11/30 05:58:34;;;;;;;4.47;3.10;;;;;;;2.32;100.00;96045.41;4955573;28;20080;-51
2021/11/30 06:01:09;;;;;;;4.85;3.25;;;;;;;2.31;100.00;96067.16;4955240;28;20078;-49
2021/11/30 06:03:56;;;;;;;4.18;2.70;;;;;;;2.20;100.00;96059.22;4950340;28;20075;-47
2021/11/30 06:06:25;;;;;;;3.20;2.70;;;;;;;2.25;100.00;96070.16;4950073;28;20078;-51
2021/11/30 06:08:53;;;;;;;3.88;3.08;;;;;;;2.25;100.00;96043.31;4949116;28;20071;-51
2021/11/30 06:11:22;;;;;;;3.10;2.65;;;;;;;2.25;100.00;96064.13;4950639;28;20091;-47
2021/11/30 06:13:52;;;;;;;7.97;3.20;;;;;;;2.18;100.00;96061.13;4947743;28;20090;-51
2021/11/30 06:16:21;;;;;;;3.83;2.97;;;;;;;2.18;100.00;96057.69;4950511;29;20074;-45
2021/11/30 06:18:49;;;;;;;2.97;2.70;;;;;;;2.40;100.00;96052.69;4950281;29;20078;-49
2021/11/30 06:21:18;;;;;;;9.35;5.30;;;;;;;2.27;100.00;96046.63;4949751;29;20074;-50
2021/11/30 06:23:48;;;;;;;5.85;3.15;;;;;;;2.18;100.00;96047.28;4949952;29;20071;-47
2021/11/30 06:26:17;;;;;;;5.50;3.75;;;;;;;2.25;100.00;96058.94;4950434;29;20083;-48
2021/11/30 06:28:45;;;;;;;7.00;3.58;;;;;;;2.28;100.00;96051.75;4952020;29;20087;-48
2021/11/30 06:31:16;;;;;;;4.93;3.20;;;;;;;2.18;100.00;96048.09;4949936;28;20078;-51
2021/11/30 06:33:45;;;;;;;3.15;2.85;;;;;;;2.26;100.00;96058.81;4949827;28;20533;-48
2021/11/30 06:36:13;;;;;;;4.57;2.95;;;;;;;2.27;100.00;96051.84;4950065;28;20090;-50
2021/11/30 06:38:42;;;;;;;3.85;3.08;;;;;;;2.40;100.00;96064.84;4950651;28;20082;-50
2021/11/30 06:41:10;;;;;;;3.70;3.08;;;;;;;2.08;100.00;96063.50;4949091;28;20090;-48
2021/11/30 06:43:38;;;;;;;5.00;3.83;;;;;;;2.19;100.00;96057.56;4951225;29;20090;-45
2021/11/30 06:46:07;;;;;;;4.53;3.25;;;;;;;2.20;100.00;96048.81;4949189;28;20501;-52
2021/11/30 06:48:37;;;;;;;5.72;3.95;;;;;;;2.36;100.00;96053.81;4949100;29;20081;-53
2021/11/30 06:51:05;;;;;;;2.80;2.60;;;;;;;2.19;100.00;96047.16;4949027;28;20079;-46
2021/11/30 06:53:34;;;;;;;7.00;3.85;;;;;;;2.24;100.00;96046.88;4949503;28;20074;-52
2021/11/30 06:56:02;;;;;;;7.53;2.97;;;;;;;2.45;100.00;96055.81;4954404;28;20087;-47
2021/11/30 06:58:31;;;;;;;3.25;2.95;;;;;;;2.41;100.00;96041.34;4948879;28;20268;-48
2021/11/30 07:00:59;;;;;;;3.97;2.92;;;;;;;2.26;100.00;96060.59;4948708;28;20077;-48
2021/11/30 07:03:27;;;;;;;3.30;2.97;;;;;;;2.34;100.00;96051.34;4949292;29;20082;-48
2021/11/30 07:06:00;;;;;;;3.25;2.95;;;;;;;2.44;100.00;96046.31;4949800;28;20097;-48
2021/11/30 07:11:20;;;;;;;4.30;3.08;;;;;;;2.35;100.00;96042.59;4948390;28;20051;-49
2021/11/30 07:13:48;;;;;;;3.40;3.10;;;;;;;2.39;100.00;96053.63;4947139;29;20098;-46
2021/11/30 07:16:35;;;;;;;3.42;2.90;;;;;;;2.41;100.00;96066.50;4951688;29;20062;-54
2021/11/30 07:19:05;;;;;;;3.15;2.78;;;;;;;2.58;100.00;96038.41;4948626;28;20075;-51
2021/11/30 07:21:35;;;;;;;4.25;3.15;;;;;;;2.73;100.00;96040.91;4948650;29;20082;-47
2021/11/30 07:24:05;;;;;;;4.57;3.47;;;;;;;2.56;100.00;96032.47;4948877;29;20066;-53
2021/11/30 07:26:33;;;;;;;3.53;3.03;;;;;;;2.81;100.00;96043.78;4949101;29;20074;-47
2021/11/30 07:29:04;;;;;;;4.50;3.47;;;;;;;2.53;100.00;96037.88;4950810;29;20083;-47
2021/11/30 07:31:32;;;;;;;2.97;2.78;;;;;;;2.35;100.00;96046.97;4948685;28;20081;-46
2021/11/30 07:34:01;;;;;;;2.88;2.65;;;;;;;2.57;100.00;96036.72;4948776;28;20086;-51
2021/11/30 07:36:30;;;;;;;3.90;3.00;;;;;;;2.59;100.00;96001.03;4948819;28;20067;-47
2021/11/30 07:39:00;;;;;;;4.43;3.40;;;;;;;2.50;100.00;96022.47;4948661;29;20071;-47
2021/11/30 07:41:29;;;;;;;3.45;3.15;;;;;;;2.28;100.00;96006.69;4948138;29;20482;-49
2021/11/30 07:43:57;;;;;;;2.53;2.33;;;;;;;2.52;100.00;96025.00;4950300;29;20548;-46
2021/11/30 07:46:25;;;;;;;3.45;2.97;;;;;;;2.53;100.00;96029.25;4948461;29;20481;-46
2021/11/30 07:48:54;;;;;;;2.90;2.65;;;;;;;2.35;100.00;96011.38;4948146;28;20074;-51
2021/11/30 07:51:22;;;;;;;4.35;2.90;;;;;;;2.01;100.00;96012.84;4950899;28;20066;-47
2021/11/30 07:53:51;;;;;;;5.07;3.42;;;;;;;2.31;100.00;96003.88;4951976;28;20066;-52
2021/11/30 07:56:21;;;;;;;3.78;2.97;;;;;;;2.27;100.00;95995.47;4948162;29;20093;-48
2021/11/30 07:58:49;;;;;;;5.35;3.00;;;;;;;2.45;100.00;95995.13;4950498;29;20078;-46
2021/11/30 08:01:17;;;;;;;3.08;2.78;;;;;;;2.28;100.00;96004.09;4948131;28;20063;-50
2021/11/30 08:03:46;;;;;;;3.38;2.80;;;;;;;2.31;100.00;95990.88;4942260;28;20110;-48
2021/11/30 08:06:15;;;;;;;2.58;2.38;;;;;;;2.45;100.00;96006.38;4942816;28;20081;-51
2021/11/30 08:08:44;;;;;;;4.18;2.85;;;;;;;2.55;100.00;95991.78;4947926;29;20067;-50
2021/11/30 08:11:12;;;;;;;3.10;2.90;;;;;;;2.23;100.00;95995.75;4947444;28;20082;-53
2021/11/30 08:13:42;;;;;;;3.97;3.05;;;;;;;2.28;100.00;95989.31;4950506;28;20455;-52
2021/11/30 08:16:10;;;;;;;5.27;3.20;;;;;;;2.56;100.00;95977.81;4948522;28;20075;-51
2021/11/30 08:18:40;;;;;;;4.68;3.20;;;;;;;2.54;100.00;95971.06;4948316;28;20490;-48
2021/11/30 08:21:08;;;;;;;2.97;2.67;;;;;;;2.25;100.00;95958.31;4947876;28;20067;-49
2021/11/30 08:23:55;;;;;;;4.50;3.45;;;;;;;2.31;100.00;95963.09;4948558;28;20421;-47
2021/11/30 08:26:23;;;;;;;4.22;3.03;;;;;;;2.30;100.00;95965.78;4948030;28;20082;-51
2021/11/30 08:28:53;;;;;;;4.45;3.55;;;;;;;2.35;100.00;95945.50;4950240;29;20090;-46
2021/11/30 08:31:22;;;;;;;2.90;2.70;;;;;;;2.44;100.00;95962.22;4947804;28;20106;-49
2021/11/30 08:33:51;;;;;;;2.90;2.70;;;;;;;2.21;100.00;95924.81;4947352;28;20491;-49
2021/11/30 08:36:19;;;;;;;4.15;3.20;;;;;;;2.59;100.00;95954.19;4947752;28;20089;-48
2021/11/30 08:38:48;;;;;;;4.72;2.80;;;;;;;1.98;100.00;95947.19;4947503;28;20070;-50
2021/11/30 08:41:20;;;;;;;2.85;2.65;;;;;;;2.24;100.00;95950.63;4946796;28;20090;-45
2021/11/30 08:43:49;;;;;;;3.10;2.80;;;;;;;1.89;100.00;95951.25;4949762;29;20078;-49
2021/11/30 08:46:37;;;;;;;8.13;3.25;;;;;;;1.97;100.00;95943.78;4947325;28;20082;-51
2021/11/30 08:49:06;;;;;;;;;;;;;;;2.06;100.00;95948.31;4958557;28;20074;-46
2021/11/30 08:51:35;;;;;;;4.45;3.00;;;;;;;1.70;100.00;95898.84;4947180;29;19966;-49
2021/11/30 08:54:03;;;;;;;6.45;3.38;;;;;;;1.74;100.00;95947.09;4947264;28;20067;-46
2021/11/30 08:56:31;;;;;;;3.58;3.28;;;;;;;1.53;100.00;95923.38;4947253;28;20071;-48
2021/11/30 08:59:00;;;;;;;4.90;3.30;;;;;;;1.62;100.00;95947.00;4944780;29;20083;-47
2021/11/30 09:01:28;;;;;;;5.45;3.50;;;;;;;1.55;100.00;95939.69;4947362;29;20187;-51
2021/11/30 09:03:58;;;;;;;3.95;3.63;;;;;;;1.63;100.00;95950.41;4947419;28;20555;-50
2021/11/30 09:06:27;;;;;;;3.45;3.15;;;;;;;1.36;100.00;95912.34;4947487;29;20071;-50
2021/11/30 09:08:55;;;;;;;3.58;3.30;;;;;;;1.34;100.00;95923.75;4946816;28;20083;-49
2021/11/30 09:11:23;;;;;;;3.90;3.40;;;;;;;1.48;100.00;95923.69;4947175;28;20292;-53
2021/11/30 09:13:53;;;;;;;3.97;3.58;;;;;;;1.49;100.00;95927.13;4950043;29;20102;-46
2021/11/30 09:16:22;;;;;;;3.60;3.30;;;;;;;1.61;100.00;95915.91;4947919;29;20572;-52
2021/11/30 09:18:51;;;;;;;4.28;3.58;;;;;;;1.62;100.00;95910.59;4948055;28;20082;-48
2021/11/30 09:21:21;;;;;;;3.83;3.40;;;;;;;1.62;100.00;95917.56;4947394;28;20132;-51
2021/11/30 09:23:49;;;;;;;3.63;3.30;;;;;;;1.48;100.00;95909.84;4950054;28;20089;-51
2021/11/30 09:26:17;;;;;;;4.45;3.88;;;;;;;1.41;100.00;95896.44;4954128;28;20071;-46
2021/11/30 09:29:04;;;;;;;5.22;3.67;;;;;;;1.46;100.00;95907.38;4953373;29;20183;-48
2021/11/30 09:31:34;;;;;;;3.97;3.50;;;;;;;1.42;100.00;95903.31;4947023;29;20123;-51
2021/11/30 09:34:04;;;;;;;5.90;3.35;;;;;;;1.49;100.00;95898.53;4945063;28;20540;-51
2021/11/30 09:36:34;;;;;;;3.78;3.17;;;;;;;1.30;100.00;95880.75;4950732;28;20071;-50
2021/11/30 09:39:06;;;;;;;4.43;3.08;;;;;;;1.46;100.00;95896.16;4950813;28;20069;-50
2021/11/30 09:41:35;;;;;;;4.35;3.45;;;;;;;1.24;100.00;95891.53;4950498;28;20073;-50
2021/11/30 09:44:04;;;;;;;14.02;3.72;;;;;;;1.48;100.00;95892.53;4957807;28;20082;-46
2021/11/30 09:46:33;;;;;;;3.67;3.15;;;;;;;1.51;100.00;95871.50;4950813;28;21688;-47
2021/11/30 09:49:02;;;;;;;4.80;3.15;;;;;;;1.62;100.00;95891.59;4950253;28;20078;-52
2021/11/30 09:51:30;;;;;;;2.97;2.60;;;;;;;1.45;100.00;95874.53;4948876;28;20081;-52
2021/11/30 09:54:00;;;;;;;3.35;3.03;;;;;;;1.52;100.00;95855.00;4950259;28;20069;-50
2021/11/30 09:56:29;;;;;;;2.83;2.47;;;;;;;1.69;100.00;95858.19;4951323;28;20079;-47
2021/11/30 09:58:57;;;;;;;3.90;2.80;;;;;;;1.47;100.00;95853.63;4952419;29;20063;-48
2021/11/30 10:01:26;;;;;;;2.97;2.30;;;;;;;1.51;100.00;95842.09;4949836;29;20087;-47
2021/11/30 10:03:55;;;;;;;3.60;2.30;;;;;;;1.81;100.00;95842.59;4950154;29;20070;-46
2021/11/30 10:06:23;;;;;;;2.40;2.30;;;;;;;1.63;100.00;95841.28;4950664;28;20198;-51
2021/11/30 10:08:55;;;;;;;3.10;2.78;;;;;;;1.66;100.00;95828.91;4949985;28;20517;-49
2021/11/30 10:11:33;;;;;;;3.17;2.55;;;;;;;1.77;100.00;95828.16;4950618;28;20530;-48
2021/11/30 10:14:11;;;;;;;2.10;2.00;;;;;;;2.06;100.00;95835.69;4952908;28;20580;-51
2021/11/30 10:16:39;;;;;;;2.40;2.28;;;;;;;1.92;100.00;95823.66;4949475;29;20500;-49
2021/11/30 10:19:09;;;;;;;3.55;3.08;;;;;;;1.79;100.00;95821.09;4945125;28;20067;-51
2021/11/30 10:21:37;;;;;;;2.75;2.20;;;;;;;1.68;100.00;95813.19;4950132;29;20078;-53
2021/11/30 10:24:07;;;;;;;3.25;2.58;;;;;;;1.84;100.00;95811.19;4949947;28;20066;-51
2021/11/30 10:26:41;;;;;;;3.22;2.50;;;;;;;2.14;100.00;95790.00;4950118;29;20477;-51
2021/11/30 10:29:12;;;;;;;2.30;2.20;;;;;;;2.47;100.00;95805.88;4950043;29;20458;-52
2021/11/30 10:31:42;;;;;;;3.20;2.40;;;;;;;2.21;100.00;95785.19;4952220;29;20075;-51
2021/11/30 10:34:13;;;;;;;3.90;2.53;;;;;;;2.12;100.00;95747.66;4949797;28;20074;-51
2021/11/30 10:36:49;;;;;;;3.47;2.40;;;;;;;2.29;100.00;95780.25;4949966;28;20083;-48
2021/11/30 10:39:20;;;;;;;2.50;2.30;;;;;;;2.35;100.00;95779.81;4951985;28;20086;-45
2021/11/30 10:41:51;;;;;;;2.30;2.10;;;;;;;2.34;100.00;95770.38;4956656;28;20071;-50
2021/11/30 10:44:29;;;;;;;2.33;2.10;;;;;;;2.38;100.00;95781.38;4949570;28;20083;-51
2021/11/30 10:47:12;;;;;;;2.35;2.20;;;;;;;2.74;100.00;95772.63;4951448;29;20168;-47
2021/11/30 10:49:46;;;;;;;2.00;1.90;;;;;;;2.41;100.00;95770.75;4945154;29;20513;-44
2021/11/30 10:52:20;;;;;;;9.23;2.20;;;;;;;2.67;100.00;95768.00;4949289;29;20074;-48
2021/11/30 10:54:49;;;;;;;2.40;2.20;;;;;;;2.81;100.00;95762.59;4949834;28;20074;-47
2021/11/30 10:57:29;;;;;;;3.63;2.03;;;;;;;2.67;100.00;95775.81;4949771;28;20059;-50
2021/11/30 11:00:11;;;;;;;3.05;2.20;;;;;;;2.45;100.00;95759.16;4949241;28;20078;-50
2021/11/30 11:02:52;;;;;;;2.38;2.17;;;;;;;2.65;100.00;95762.91;4947049;28;20561;-48
2021/11/30 11:05:25;;;;;;;2.60;2.40;;;;;;;2.76;100.00;95752.53;4946220;29;20075;-45
2021/11/30 11:08:02;;;;;;;2.08;1.98;;;;;;;2.47;100.00;95741.66;4952089;29;20083;-49
2021/11/30 11:10:30;;;;;;;7.65;2.28;;;;;;;2.61;100.00;95745.84;4949118;28;20071;-50
2021/11/30 11:13:21;;;;;;;2.13;2.03;;;;;;;2.48;100.00;95732.94;4949415;29;20074;-50
2021/11/30 11:15:51;;;;;;;2.20;2.00;;;;;;;2.66;100.00;95719.50;4949093;29;20070;-48
2021/11/30 11:18:23;;;;;;;2.10;2.00;;;;;;;2.45;100.00;95729.72;4949339;28;20097;-48
2021/11/30 11:20:52;;;;;;;2.20;2.00;;;;;;;2.60;100.00;95707.75;4948746;28;20074;-50
2021/11/30 11:23:22;;;;;;;1.93;1.83;;;;;;;2.99;100.00;95727.34;4949077;28;20087;-48
2021/11/30 11:25:53;;;;;;;2.00;1.90;;;;;;;2.41;100.00;95712.66;4951172;29;20087;-48
2021/11/30 11:28:23;;;;;;;2.13;2.03;;;;;;;2.47;100.00;95697.41;4948589;28;20446;-50
2021/11/30 11:30:52;;;;;;;2.00;1.90;;;;;;;2.81;100.00;95710.53;4948638;28;20074;-51
2021/11/30 11:33:21;;;;;;;2.10;2.00;;;;;;;3.03;100.00;95707.13;4949074;28;20059;-48
2021/11/30 11:35:49;;;;;;;2.10;2.00;;;;;;;2.70;100.00;95697.50;4951432;28;20071;-50
2021/11/30 11:38:18;;;;;;;2.00;1.90;;;;;;;2.98;100.00;95691.84;4956774;28;20058;-47
2021/11/30 11:40:48;;;;;;;2.03;1.93;;;;;;;3.44;100.00;95705.69;4950427;29;20054;-46
2021/11/30 11:43:16;;;;;;;2.00;1.90;;;;;;;2.87;100.00;95694.44;4948127;29;20081;-46
2021/11/30 11:45:46;;;;;;;2.58;2.28;;;;;;;2.79;100.00;95696.81;4947427;28;20125;-51
2021/11/30 11:48:14;;;;;;;2.10;2.00;;;;;;;3.03;100.00;95678.50;4948961;28;20093;-49
2021/11/30 11:50:50;;;;;;;2.17;1.98;;;;;;;3.33;100.00;95701.31;4947505;28;20066;-46
2021/11/30 11:53:27;;;;;;;2.08;1.98;;;;;;;2.98;100.00;95696.22;4948642;28;20067;-46
2021/11/30 11:56:14;;;;;;;1.95;1.85;;;;;;;3.20;100.00;95695.41;4950243;29;20465;-46
2021/11/30 11:58:44;;;;;;;2.38;2.10;;;;;;;2.76;100.00;95666.63;4943769;29;20677;-46